sensor_id;sensor_type;location;lat;lon;timestamp;pressure;altitude;pressure_sealevel;temperature;humidity
57644;BME280;43474;46.510;6.686;2023-05-25T00:01:35;96337.56;;;11.81;100.00
57644;BME280;43474;46.510;6.686;2023-05-25T00:04:01;96323.09;;;11.72;100.00
57644;BME280;43474;46.510;6.686;2023-05-25T00:06:32;96325.16;;;11.65;100.00
57644;BME280;43474;46.510;6.686;2023-05-25T00:09:01;96324.41;;;11.70;100.00
57644;BME280;43474;46.510;6.686;2023-05-25T00:14:49;96318.66;;;11.56;100.00
57644;BME280;43474;46.510;6.686;2023-05-25T00:17:14;96313.53;;;11.49;100.00
57644;BME280;43474;46.510;6.686;2023-05-25T00:19:46;96321.56;;;11.54;100.00
57644;BME280;43474;46.510;6.686;2023-05-25T00:22:11;96306.22;;;11.39;100.00
57644;BME280;43474;46.510;6.686;2023-05-25T00:24:38;96328.31;;;11.45;100.00
57644;BME280;43474;46.510;6.686;2023-05-25T00:27:06;96321.56;;;11.37;100.00
57644;BME280;43474;46.510;6.686;2023-05-25T00:29:33;96309.84;;;11.33;100.00
57644;BME280;43474;46.510;6.686;2023-05-25T00:32:02;96299.78;;;11.35;100.00
57644;BME280;43474;46.510;6.686;2023-05-25T00:34:30;96316.34;;;11.43;100.00
57644;BME280;43474;46.510;6.686;2023-05-25T00:36:56;96314.34;;;11.33;100.00
57644;BME280;43474;46.510;6.686;2023-05-25T00:39:22;96318.63;;;11.34;100.00
57644;BME280;43474;46.510;6.686;2023-05-25T00:41:48;96309.91;;;11.38;100.00
57644;BME280;43474;46.510;6.686;2023-05-25T00:44:17;96306.69;;;11.36;100.00
57644;BME280;43474;46.510;6.686;2023-05-25T00:46:50;96299.00;;;11.35;100.00
57644;BME280;43474;46.510;6.686;2023-05-25T00:49:17;96304.38;;;11.40;100.00
57644;BME280;43474;46.510;6.686;2023-05-25T00:51:44;96295.28;;;11.36;100.00
57644;BME280;43474;46.510;6.686;2023-05-25T00:54:14;96293.19;;;11.38;100.00
57644;BME280;43474;46.510;6.686;2023-05-25T00:56:43;96308.06;;;11.39;100.00
57644;BME280;43474;46.510;6.686;2023-05-25T00:59:23;96312.06;;;11.42;100.00
57644;BME280;43474;46.510;6.686;2023-05-25T01:01:52;96297.06;;;11.30;100.00
57644;BME280;43474;46.510;6.686;2023-05-25T01:04:20;96294.81;;;11.22;100.00
57644;BME280;43474;46.510;6.686;2023-05-25T01:06:47;96307.34;;;11.27;100.00
57644;BME280;43474;46.510;6.686;2023-05-25T01:09:16;96299.25;;;11.17;100.00
57644;BME280;43474;46.510;6.686;2023-05-25T01:11:48;96294.59;;;11.07;100.00
57644;BME280;43474;46.510;6.686;2023-05-25T01:14:22;96294.66;;;11.12;100.00
57644;BME280;43474;46.510;6.686;2023-05-25T01:17:14;96300.22;;;11.10;100.00
57644;BME280;43474;46.510;6.686;2023-05-25T01:19:40;96300.69;;;11.07;100.00
57644;BME280;43474;46.510;6.686;2023-05-25T01:22:17;96303.78;;;10.99;100.00
57644;BME280;43474;46.510;6.686;2023-05-25T01:24:55;96300.97;;;10.89;100.00
57644;BME280;43474;46.510;6.686;2023-05-25T01:30:07;96315.66;;;10.97;100.00
57644;BME280;43474;46.510;6.686;2023-05-25T01:32:35;96310.28;;;10.92;100.00
57644;BME280;43474;46.510;6.686;2023-05-25T01:35:08;96304.56;;;10.83;100.00
57644;BME280;43474;46.510;6.686;2023-05-25T01:37:37;96324.84;;;10.89;100.00
57644;BME280;43474;46.510;6.686;2023-05-25T01:40:09;96308.59;;;10.85;100.00
57644;BME280;43474;46.510;6.686;2023-05-25T01:42:38;96314.38;;;10.82;100.00
57644;BME280;43474;46.510;6.686;2023-05-25T01:45:07;96312.38;;;10.90;100.00
57644;BME280;43474;46.510;6.686;2023-05-25T01:47:42;96329.78;;;10.85;100.00
57644;BME280;43474;46.510;6.686;2023-05-25T01:53:09;96312.59;;;10.88;100.00
57644;BME280;43474;46.510;6.686;2023-05-25T01:55:45;96323.78;;;10.90;100.00
57644;BME280;43474;46.510;6.686;2023-05-25T01:58:18;96305.59;;;10.82;100.00
57644;BME280;43474;46.510;6.686;2023-05-25T02:00:46;96318.22;;;10.92;100.00
57644;BME280;43474;46.510;6.686;2023-05-25T02:03:16;96320.31;;;10.90;100.00
57644;BME280;43474;46.510;6.686;2023-05-25T02:05:48;96316.03;;;10.88;100.00
57644;BME280;43474;46.510;6.686;2023-05-25T02:08:14;96321.03;;;11.02;100.00
57644;BME280;43474;46.510;6.686;2023-05-25T02:10:57;96297.75;;;10.87;100.00
57644;BME280;43474;46.510;6.686;2023-05-25T02:13:23;96313.97;;;10.91;100.00
57644;BME280;43474;46.510;6.686;2023-05-25T02:15:49;96321.28;;;11.00;100.00
57644;BME280;43474;46.510;6.686;2023-05-25T02:18:14;96304.00;;;10.98;100.00
57644;BME280;43474;46.510;6.686;2023-05-25T02:20:48;96304.16;;;10.91;100.00
57644;BME280;43474;46.510;6.686;2023-05-25T02:23:16;96303.03;;;10.87;100.00
57644;BME280;43474;46.510;6.686;2023-05-25T02:25:46;96305.78;;;10.92;100.00
57644;BME280;43474;46.510;6.686;2023-05-25T02:28:11;96300.22;;;10.94;100.00
57644;BME280;43474;46.510;6.686;2023-05-25T02:30:37;96303.44;;;10.96;100.00
57644;BME280;43474;46.510;6.686;2023-05-25T02:33:11;96302.72;;;11.00;100.00
57644;BME280;43474;46.510;6.686;2023-05-25T02:35:38;96303.38;;;10.91;100.00
57644;BME280;43474;46.510;6.686;2023-05-25T02:38:03;96295.66;;;10.89;100.00
57644;BME280;43474;46.510;6.686;2023-05-25T02:40:29;96301.78;;;10.90;100.00
57644;BME280;43474;46.510;6.686;2023-05-25T02:42:57;96300.00;;;10.95;100.00
57644;BME280;43474;46.510;6.686;2023-05-25T02:45:23;96300.38;;;10.87;100.00
57644;BME280;43474;46.510;6.686;2023-05-25T02:47:49;96310.53;;;10.90;100.00
57644;BME280;43474;46.510;6.686;2023-05-25T02:50:14;96306.81;;;10.91;100.00
57644;BME280;43474;46.510;6.686;2023-05-25T02:52:43;96319.03;;;10.92;100.00
57644;BME280;43474;46.510;6.686;2023-05-25T02:55:14;96313.25;;;10.95;100.00
57644;BME280;43474;46.510;6.686;2023-05-25T02:57:39;96305.44;;;10.88;100.00
57644;BME280;43474;46.510;6.686;2023-05-25T03:00:05;96294.28;;;10.86;100.00
57644;BME280;43474;46.510;6.686;2023-05-25T03:02:32;96309.72;;;10.90;100.00
57644;BME280;43474;46.510;6.686;2023-05-25T03:04:57;96314.78;;;10.91;100.00
57644;BME280;43474;46.510;6.686;2023-05-25T03:07:24;96313.97;;;10.91;100.00
57644;BME280;43474;46.510;6.686;2023-05-25T03:09:51;96309.66;;;10.84;100.00
57644;BME280;43474;46.510;6.686;2023-05-25T03:12:19;96319.19;;;10.85;100.00
57644;BME280;43474;46.510;6.686;2023-05-25T03:14:45;96316.03;;;10.88;100.00
57644;BME280;43474;46.510;6.686;2023-05-25T03:17:13;96310.66;;;10.83;100.00
57644;BME280;43474;46.510;6.686;2023-05-25T03:19:39;96319.75;;;10.87;100.00
57644;BME280;43474;46.510;6.686;2023-05-25T03:22:08;96311.97;;;10.81;100.00
57644;BME280;43474;46.510;6.686;2023-05-25T03:24:34;96322.31;;;10.82;100.00
57644;BME280;43474;46.510;6.686;2023-05-25T03:27:02;96325.28;;;10.86;100.00
57644;BME280;43474;46.510;6.686;2023-05-25T03:29:28;96311.47;;;10.84;100.00
57644;BME280;43474;46.510;6.686;2023-05-25T03:31:56;96312.50;;;10.83;100.00
57644;BME280;43474;46.510;6.686;2023-05-25T03:34:22;96304.41;;;10.73;100.00
57644;BME280;43474;46.510;6.686;2023-05-25T03:36:49;96312.44;;;10.78;100.00
57644;BME280;43474;46.510;6.686;2023-05-25T03:39:15;96330.13;;;10.89;100.00
57644;BME280;43474;46.510;6.686;2023-05-25T03:41:47;96296.03;;;10.64;100.00
57644;BME280;43474;46.510;6.686;2023-05-25T03:44:18;96322.66;;;10.86;100.00
57644;BME280;43474;46.510;6.686;2023-05-25T03:46:47;96330.94;;;10.90;100.00
57644;BME280;43474;46.510;6.686;2023-05-25T03:49:15;96321.03;;;10.85;100.00
57644;BME280;43474;46.510;6.686;2023-05-25T03:51:53;96324.00;;;10.88;100.00
57644;BME280;43474;46.510;6.686;2023-05-25T03:54:18;96294.38;;;10.75;100.00
57644;BME280;43474;46.510;6.686;2023-05-25T03:56:47;96318.94;;;10.87;100.00
57644;BME280;43474;46.510;6.686;2023-05-25T03:59:12;96326.34;;;10.85;100.00
57644;BME280;43474;46.510;6.686;2023-05-25T04:01:41;96335.19;;;10.91;100.00
57644;BME280;43474;46.510;6.686;2023-05-25T04:04:09;96340.81;;;10.94;100.00
57644;BME280;43474;46.510;6.686;2023-05-25T04:06:35;96350.03;;;10.92;100.00
57644;BME280;43474;46.510;6.686;2023-05-25T04:09:05;96357.66;;;10.88;100.00
57644;BME280;43474;46.510;6.686;2023-05-25T04:11:30;96358.72;;;10.87;100.00
57644;BME280;43474;46.510;6.686;2023-05-25T04:14:02;96351.81;;;10.86;100.00
57644;BME280;43474;46.510;6.686;2023-05-25T04:16:28;96356.16;;;10.92;100.00
57644;BME280;43474;46.510;6.686;2023-05-25T04:18:53;96357.09;;;10.86;100.00
57644;BME280;43474;46.510;6.686;2023-05-25T04:21:22;96348.91;;;10.87;100.00
57644;BME280;43474;46.510;6.686;2023-05-25T04:23:50;96355.81;;;10.88;100.00
57644;BME280;43474;46.510;6.686;2023-05-25T04:26:19;96356.31;;;10.85;100.00
57644;BME280;43474;46.510;6.686;2023-05-25T04:28:45;96350.22;;;10.85;100.00
57644;BME280;43474;46.510;6.686;2023-05-25T04:31:17;96367.00;;;10.91;100.00
57644;BME280;43474;46.510;6.686;2023-05-25T04:33:42;96361.81;;;10.84;100.00
57644;BME280;43474;46.510;6.686;2023-05-25T04:36:12;96368.06;;;10.90;100.00
57644;BME280;43474;46.510;6.686;2023-05-25T04:38:41;96368.50;;;10.86;100.00
57644;BME280;43474;46.510;6.686;2023-05-25T04:41:07;96371.72;;;10.88;100.00
57644;BME280;43474;46.510;6.686;2023-05-25T04:43:32;96362.75;;;10.90;100.00
57644;BME280;43474;46.510;6.686;2023-05-25T04:46:05;96366.91;;;10.85;100.00
57644;BME280;43474;46.510;6.686;2023-05-25T04:48:34;96373.81;;;10.86;100.00
57644;BME280;43474;46.510;6.686;2023-05-25T04:51:02;96374.69;;;10.92;100.00
57644;BME280;43474;46.510;6.686;2023-05-25T04:53:31;96383.72;;;10.91;100.00
57644;BME280;43474;46.510;6.686;2023-05-25T04:55:57;96390.16;;;10.95;100.00
57644;BME280;43474;46.510;6.686;2023-05-25T04:58:23;96387.72;;;10.94;100.00
57644;BME280;43474;46.510;6.686;2023-05-25T05:00:58;96378.03;;;10.99;100.00
57644;BME280;43474;46.510;6.686;2023-05-25T05:03:23;96386.34;;;10.91;100.00
57644;BME280;43474;46.510;6.686;2023-05-25T05:05:52;96408.47;;;10.97;100.00
57644;BME280;43474;46.510;6.686;2023-05-25T05:08:26;96418.59;;;11.00;100.00
57644;BME280;43474;46.510;6.686;2023-05-25T05:10:52;96422.28;;;10.99;100.00
57644;BME280;43474;46.510;6.686;2023-05-25T05:13:17;96414.47;;;10.92;100.00
57644;BME280;43474;46.510;6.686;2023-05-25T05:15:46;96431.75;;;10.95;100.00
57644;BME280;43474;46.510;6.686;2023-05-25T05:18:11;96436.56;;;10.98;100.00
57644;BME280;43474;46.510;6.686;2023-05-25T05:20:38;96439.94;;;10.93;100.00
57644;BME280;43474;46.510;6.686;2023-05-25T05:23:07;96452.72;;;10.96;100.00
57644;BME280;43474;46.510;6.686;2023-05-25T05:25:32;96442.59;;;10.93;100.00
57644;BME280;43474;46.510;6.686;2023-05-25T05:28:02;96459.88;;;10.96;100.00
57644;BME280;43474;46.510;6.686;2023-05-25T05:30:31;96465.91;;;10.91;100.00
57644;BME280;43474;46.510;6.686;2023-05-25T05:33:02;96452.13;;;10.77;100.00
57644;BME280;43474;46.510;6.686;2023-05-25T05:35:28;96464.81;;;10.75;100.00
57644;BME280;43474;46.510;6.686;2023-05-25T05:37:57;96489.94;;;10.73;100.00
57644;BME280;43474;46.510;6.686;2023-05-25T05:40:26;96483.03;;;10.72;100.00
57644;BME280;43474;46.510;6.686;2023-05-25T05:42:51;96477.78;;;10.60;100.00
57644;BME280;43474;46.510;6.686;2023-05-25T05:45:17;96488.69;;;10.64;100.00
57644;BME280;43474;46.510;6.686;2023-05-25T05:47:42;96492.03;;;10.59;100.00
57644;BME280;43474;46.510;6.686;2023-05-25T05:50:14;96487.91;;;10.51;100.00
57644;BME280;43474;46.510;6.686;2023-05-25T05:52:55;96482.38;;;10.53;100.00
57644;BME280;43474;46.510;6.686;2023-05-25T05:55:20;96483.88;;;10.49;100.00
57644;BME280;43474;46.510;6.686;2023-05-25T05:58:01;96485.16;;;10.46;100.00
57644;BME280;43474;46.510;6.686;2023-05-25T06:00:27;96505.06;;;10.49;100.00
57644;BME280;43474;46.510;6.686;2023-05-25T06:02:52;96495.53;;;10.48;100.00
57644;BME280;43474;46.510;6.686;2023-05-25T06:05:18;96496.91;;;10.50;100.00
57644;BME280;43474;46.510;6.686;2023-05-25T06:07:44;96473.78;;;10.22;100.00
57644;BME280;43474;46.510;6.686;2023-05-25T06:10:12;96492.31;;;10.34;100.00
57644;BME280;43474;46.510;6.686;2023-05-25T06:12:38;96515.56;;;10.44;100.00
57644;BME280;43474;46.510;6.686;2023-05-25T06:15:04;96501.44;;;10.26;100.00
57644;BME280;43474;46.510;6.686;2023-05-25T06:17:30;96514.13;;;10.24;100.00
57644;BME280;43474;46.510;6.686;2023-05-25T06:19:56;96525.50;;;10.37;100.00
57644;BME280;43474;46.510;6.686;2023-05-25T06:22:31;96519.03;;;10.32;100.00
57644;BME280;43474;46.510;6.686;2023-05-25T06:25:00;96523.53;;;10.32;100.00
57644;BME280;43474;46.510;6.686;2023-05-25T06:27:26;96516.25;;;10.39;100.00
57644;BME280;43474;46.510;6.686;2023-05-25T06:30:01;96528.34;;;10.47;100.00
57644;BME280;43474;46.510;6.686;2023-05-25T06:32:26;96532.28;;;10.56;100.00
57644;BME280;43474;46.510;6.686;2023-05-25T06:34:52;96540.31;;;10.61;100.00
57644;BME280;43474;46.510;6.686;2023-05-25T06:37:20;96533.53;;;10.65;100.00
57644;BME280;43474;46.510;6.686;2023-05-25T06:39:49;96526.97;;;10.56;100.00
57644;BME280;43474;46.510;6.686;2023-05-25T06:42:14;96512.56;;;10.52;100.00
57644;BME280;43474;46.510;6.686;2023-05-25T06:44:43;96533.28;;;10.67;100.00
57644;BME280;43474;46.510;6.686;2023-05-25T06:47:08;96523.03;;;10.70;100.00
57644;BME280;43474;46.510;6.686;2023-05-25T06:49:37;96524.69;;;10.88;100.00
57644;BME280;43474;46.510;6.686;2023-05-25T06:52:02;96542.56;;;11.21;100.00
57644;BME280;43474;46.510;6.686;2023-05-25T06:54:28;96529.91;;;11.57;100.00
57644;BME280;43474;46.510;6.686;2023-05-25T06:56:53;96516.69;;;12.07;100.00
57644;BME280;43474;46.510;6.686;2023-05-25T06:59:19;96517.31;;;12.97;100.00
57644;BME280;43474;46.510;6.686;2023-05-25T07:01:45;96512.09;;;13.88;100.00
57644;BME280;43474;46.510;6.686;2023-05-25T07:04:11;96511.84;;;14.80;100.00
57644;BME280;43474;46.510;6.686;2023-05-25T07:06:36;96514.69;;;15.41;100.00
57644;BME280;43474;46.510;6.686;2023-05-25T07:09:07;96522.25;;;15.74;100.00
57644;BME280;43474;46.510;6.686;2023-05-25T07:11:33;96531.06;;;15.75;100.00
57644;BME280;43474;46.510;6.686;2023-05-25T07:13:59;96525.84;;;16.70;100.00
57644;BME280;43474;46.510;6.686;2023-05-25T07:16:30;96538.66;;;17.93;100.00
57644;BME280;43474;46.510;6.686;2023-05-25T07:18:56;96522.00;;;18.25;100.00
57644;BME280;43474;46.510;6.686;2023-05-25T07:21:21;96533.38;;;19.18;100.00
57644;BME280;43474;46.510;6.686;2023-05-25T07:23:47;96547.41;;;19.52;100.00
57644;BME280;43474;46.510;6.686;2023-05-25T07:26:13;96539.13;;;19.30;98.46
57644;BME280;43474;46.510;6.686;2023-05-25T07:28:39;96560.88;;;19.90;97.62
57644;BME280;43474;46.510;6.686;2023-05-25T07:31:04;96557.34;;;20.08;99.24
57644;BME280;43474;46.510;6.686;2023-05-25T07:33:36;96558.69;;;20.57;96.32
57644;BME280;43474;46.510;6.686;2023-05-25T07:36:07;96561.66;;;21.44;92.04
57644;BME280;43474;46.510;6.686;2023-05-25T07:38:34;96562.94;;;21.32;86.88
57644;BME280;43474;46.510;6.686;2023-05-25T07:41:01;96568.91;;;20.60;85.02
57644;BME280;43474;46.510;6.686;2023-05-25T07:43:26;96563.56;;;20.23;88.41
57644;BME280;43474;46.510;6.686;2023-05-25T07:45:59;96570.03;;;20.40;88.82
57644;BME280;43474;46.510;6.686;2023-05-25T07:48:26;96584.03;;;20.56;87.66
57644;BME280;43474;46.510;6.686;2023-05-25T07:50:52;96581.28;;;20.75;90.23
57644;BME280;43474;46.510;6.686;2023-05-25T07:53:21;96574.13;;;20.84;87.87
57644;BME280;43474;46.510;6.686;2023-05-25T07:55:46;96562.50;;;21.53;80.65
57644;BME280;43474;46.510;6.686;2023-05-25T07:58:12;96574.38;;;21.88;83.52
57644;BME280;43474;46.510;6.686;2023-05-25T08:01:15;96590.16;;;22.31;81.00
57644;BME280;43474;46.510;6.686;2023-05-25T08:03:41;96587.88;;;22.24;80.75
57644;BME280;43474;46.510;6.686;2023-05-25T08:06:07;96585.84;;;22.30;78.14
57644;BME280;43474;46.510;6.686;2023-05-25T08:08:36;96576.25;;;22.68;76.28
57644;BME280;43474;46.510;6.686;2023-05-25T08:11:02;96587.88;;;20.97;79.84
57644;BME280;43474;46.510;6.686;2023-05-25T08:13:33;96590.38;;;21.21;88.07
57644;BME280;43474;46.510;6.686;2023-05-25T08:16:02;96585.59;;;21.04;87.44
57644;BME280;43474;46.510;6.686;2023-05-25T08:18:30;96584.84;;;20.38;89.41
57644;BME280;43474;46.510;6.686;2023-05-25T08:21:01;96594.47;;;21.18;84.87
57644;BME280;43474;46.510;6.686;2023-05-25T08:23:27;96593.63;;;20.49;82.35
57644;BME280;43474;46.510;6.686;2023-05-25T08:25:53;96583.75;;;18.20;93.25
57644;BME280;43474;46.510;6.686;2023-05-25T08:28:21;96606.66;;;17.57;100.00
57644;BME280;43474;46.510;6.686;2023-05-25T08:30:47;96614.66;;;17.08;100.00
57644;BME280;43474;46.510;6.686;2023-05-25T08:33:13;96601.03;;;18.03;100.00
57644;BME280;43474;46.510;6.686;2023-05-25T08:35:42;96608.84;;;20.02;93.85
57644;BME280;43474;46.510;6.686;2023-05-25T08:38:10;96600.25;;;20.98;90.57
57644;BME280;43474;46.510;6.686;2023-05-25T08:40:40;96605.56;;;21.44;87.19
57644;BME280;43474;46.510;6.686;2023-05-25T08:43:06;96614.84;;;21.24;79.90
57644;BME280;43474;46.510;6.686;2023-05-25T08:45:32;96613.09;;;19.22;83.16
57644;BME280;43474;46.510;6.686;2023-05-25T08:48:07;96613.38;;;18.39;88.69
57644;BME280;43474;46.510;6.686;2023-05-25T08:50:34;96617.03;;;18.19;94.20
57644;BME280;43474;46.510;6.686;2023-05-25T08:53:06;96627.09;;;18.71;87.82
57644;BME280;43474;46.510;6.686;2023-05-25T08:55:32;96626.47;;;18.11;94.44
57644;BME280;43474;46.510;6.686;2023-05-25T09:00:41;96620.38;;;16.76;100.00
57644;BME280;43474;46.510;6.686;2023-05-25T09:03:15;96643.25;;;17.28;100.00
57644;BME280;43474;46.510;6.686;2023-05-25T09:05:48;96644.47;;;17.56;98.75
57644;BME280;43474;46.510;6.686;2023-05-25T09:08:19;96640.97;;;18.44;86.73
57644;BME280;43474;46.510;6.686;2023-05-25T09:10:45;96642.94;;;18.33;98.57
57644;BME280;43474;46.510;6.686;2023-05-25T09:13:11;96642.50;;;18.55;91.76
57644;BME280;43474;46.510;6.686;2023-05-25T09:15:37;96640.78;;;19.90;85.71
57644;BME280;43474;46.510;6.686;2023-05-25T09:18:09;96664.72;;;19.19;87.30
57644;BME280;43474;46.510;6.686;2023-05-25T09:20:35;96655.84;;;20.09;84.67
57644;BME280;43474;46.510;6.686;2023-05-25T09:23:07;96640.31;;;19.63;79.08
57644;BME280;43474;46.510;6.686;2023-05-25T09:25:43;96660.53;;;20.36;82.84
57644;BME280;43474;46.510;6.686;2023-05-25T09:28:08;96645.97;;;20.56;77.48
57644;BME280;43474;46.510;6.686;2023-05-25T09:30:37;96665.00;;;19.90;77.21
57644;BME280;43474;46.510;6.686;2023-05-25T09:33:14;96663.00;;;20.52;86.47
57644;BME280;43474;46.510;6.686;2023-05-25T09:35:44;96663.31;;;20.31;82.39
57644;BME280;43474;46.510;6.686;2023-05-25T09:38:14;96642.19;;;20.38;78.54
57644;BME280;43474;46.510;6.686;2023-05-25T09:40:43;96651.28;;;20.43;80.69
57644;BME280;43474;46.510;6.686;2023-05-25T09:43:10;96651.28;;;20.43;82.80
57644;BME280;43474;46.510;6.686;2023-05-25T09:45:36;96636.44;;;20.64;82.27
57644;BME280;43474;46.510;6.686;2023-05-25T09:48:11;96647.22;;;20.45;78.67
57644;BME280;43474;46.510;6.686;2023-05-25T09:50:37;96656.97;;;20.22;75.25
57644;BME280;43474;46.510;6.686;2023-05-25T09:53:06;96647.75;;;20.09;75.49
57644;BME280;43474;46.510;6.686;2023-05-25T09:55:34;96663.06;;;20.28;81.43
57644;BME280;43474;46.510;6.686;2023-05-25T09:58:07;96654.09;;;20.70;82.24
57644;BME280;43474;46.510;6.686;2023-05-25T10:00:36;96668.84;;;20.73;75.17
57644;BME280;43474;46.510;6.686;2023-05-25T10:03:10;96648.66;;;20.37;76.37
57644;BME280;43474;46.510;6.686;2023-05-25T10:05:42;96664.09;;;20.83;80.84
57644;BME280;43474;46.510;6.686;2023-05-25T10:08:09;96675.69;;;20.98;76.05
57644;BME280;43474;46.510;6.686;2023-05-25T10:10:38;96676.50;;;20.98;73.97
57644;BME280;43474;46.510;6.686;2023-05-25T10:13:11;96665.75;;;21.26;76.03
57644;BME280;43474;46.510;6.686;2023-05-25T10:15:39;96666.75;;;21.16;77.86
57644;BME280;43474;46.510;6.686;2023-05-25T10:18:13;96678.28;;;21.49;77.44
57644;BME280;43474;46.510;6.686;2023-05-25T10:20:42;96687.94;;;21.36;74.13
57644;BME280;43474;46.510;6.686;2023-05-25T10:23:15;96671.63;;;21.28;79.85
57644;BME280;43474;46.510;6.686;2023-05-25T10:25:49;96674.06;;;21.71;75.53
57644;BME280;43474;46.510;6.686;2023-05-25T10:28:30;96681.88;;;21.58;75.58
57644;BME280;43474;46.510;6.686;2023-05-25T10:31:00;96656.72;;;21.49;69.40
57644;BME280;43474;46.510;6.686;2023-05-25T10:33:26;96684.38;;;21.68;74.12
57644;BME280;43474;46.510;6.686;2023-05-25T10:35:53;96696.34;;;21.62;71.43
57644;BME280;43474;46.510;6.686;2023-05-25T10:38:24;96694.72;;;21.89;74.74
57644;BME280;43474;46.510;6.686;2023-05-25T10:40:52;96688.53;;;21.88;73.36
57644;BME280;43474;46.510;6.686;2023-05-25T10:43:19;96703.09;;;21.19;70.54
57644;BME280;43474;46.510;6.686;2023-05-25T10:45:51;96682.50;;;20.62;74.80
57644;BME280;43474;46.510;6.686;2023-05-25T10:48:23;96688.75;;;20.90;73.63
57644;BME280;43474;46.510;6.686;2023-05-25T10:50:59;96691.88;;;21.11;68.55
57644;BME280;43474;46.510;6.686;2023-05-25T10:53:25;96632.00;;;21.01;74.33
57644;BME280;43474;46.510;6.686;2023-05-25T10:58:25;96690.44;;;21.47;72.19
57644;BME280;43474;46.510;6.686;2023-05-25T11:00:57;96712.94;;;21.56;73.15
57644;BME280;43474;46.510;6.686;2023-05-25T11:09:25;96706.91;;;21.73;72.37
57644;BME280;43474;46.510;6.686;2023-05-25T11:12:03;96697.94;;;21.77;74.98
57644;BME280;43474;46.510;6.686;2023-05-25T11:14:31;96704.16;;;22.28;73.17
57644;BME280;43474;46.510;6.686;2023-05-25T11:19:53;96732.00;;;22.01;70.26
57644;BME280;43474;46.510;6.686;2023-05-25T11:22:31;96720.19;;;22.10;69.87
57644;BME280;43474;46.510;6.686;2023-05-25T11:24:59;96723.94;;;22.37;72.59
57644;BME280;43474;46.510;6.686;2023-05-25T11:27:29;96712.53;;;21.76;69.51
57644;BME280;43474;46.510;6.686;2023-05-25T11:29:57;96721.72;;;21.61;70.69
57644;BME280;43474;46.510;6.686;2023-05-25T11:32:26;96727.72;;;21.58;77.07
57644;BME280;43474;46.510;6.686;2023-05-25T11:34:54;96719.41;;;21.82;78.30
57644;BME280;43474;46.510;6.686;2023-05-25T11:37:25;96711.28;;;22.24;72.98
57644;BME280;43474;46.510;6.686;2023-05-25T11:39:59;96695.97;;;22.33;71.08
57644;BME280;43474;46.510;6.686;2023-05-25T11:42:34;96719.53;;;22.41;71.42
57644;BME280;43474;46.510;6.686;2023-05-25T11:45:03;96707.06;;;22.31;73.53
57644;BME280;43474;46.510;6.686;2023-05-25T11:47:32;96722.38;;;22.58;73.52
57644;BME280;43474;46.510;6.686;2023-05-25T11:49:58;96709.50;;;22.05;72.32
57644;BME280;43474;46.510;6.686;2023-05-25T11:52:23;96716.69;;;21.82;69.63
57644;BME280;43474;46.510;6.686;2023-05-25T11:54:52;96698.34;;;21.43;72.83
57644;BME280;43474;46.510;6.686;2023-05-25T11:57:19;96722.13;;;21.68;68.57
57644;BME280;43474;46.510;6.686;2023-05-25T11:59:52;96724.91;;;21.36;72.63
57644;BME280;43474;46.510;6.686;2023-05-25T12:02:19;96726.22;;;21.38;70.71
57644;BME280;43474;46.510;6.686;2023-05-25T12:04:56;96717.81;;;21.67;72.49
57644;BME280;43474;46.510;6.686;2023-05-25T12:07:28;96719.28;;;22.01;74.88
57644;BME280;43474;46.510;6.686;2023-05-25T12:10:25;96725.06;;;22.22;68.94
57644;BME280;43474;46.510;6.686;2023-05-25T12:12:53;96722.31;;;21.72;75.44
57644;BME280;43474;46.510;6.686;2023-05-25T12:15:23;96712.41;;;21.81;72.01
57644;BME280;43474;46.510;6.686;2023-05-25T12:17:54;96708.53;;;21.74;74.28
57644;BME280;43474;46.510;6.686;2023-05-25T12:20:23;96724.94;;;21.63;77.18
57644;BME280;43474;46.510;6.686;2023-05-25T12:22:48;96724.69;;;22.01;76.56
57644;BME280;43474;46.510;6.686;2023-05-25T12:25:19;96718.94;;;22.44;76.40
57644;BME280;43474;46.510;6.686;2023-05-25T12:27:48;96714.09;;;22.05;74.72
57644;BME280;43474;46.510;6.686;2023-05-25T12:30:36;96720.09;;;22.02;79.34
57644;BME280;43474;46.510;6.686;2023-05-25T12:33:05;96720.91;;;21.61;77.34
57644;BME280;43474;46.510;6.686;2023-05-25T12:35:48;96721.25;;;21.27;76.34
57644;BME280;43474;46.510;6.686;2023-05-25T12:38:16;96727.91;;;21.34;81.25
57644;BME280;43474;46.510;6.686;2023-05-25T12:41:04;96723.31;;;21.35;81.81
57644;BME280;43474;46.510;6.686;2023-05-25T12:43:46;96712.13;;;21.55;83.99
57644;BME280;43474;46.510;6.686;2023-05-25T12:46:22;96726.63;;;21.59;80.72
57644;BME280;43474;46.510;6.686;2023-05-25T12:48:48;96724.41;;;21.61;83.08
57644;BME280;43474;46.510;6.686;2023-05-25T12:51:36;96723.03;;;21.50;81.93
57644;BME280;43474;46.510;6.686;2023-05-25T12:54:01;96716.59;;;21.32;84.90
57644;BME280;43474;46.510;6.686;2023-05-25T12:56:27;96719.72;;;21.39;83.28
57644;BME280;43474;46.510;6.686;2023-05-25T12:58:52;96728.25;;;21.28;86.40
57644;BME280;43474;46.510;6.686;2023-05-25T13:01:18;96721.09;;;20.90;80.49
57644;BME280;43474;46.510;6.686;2023-05-25T13:03:44;96717.69;;;20.85;85.08
57644;BME280;43474;46.510;6.686;2023-05-25T13:06:09;96735.03;;;20.79;84.19
57644;BME280;43474;46.510;6.686;2023-05-25T13:08:46;96720.66;;;20.51;84.04
57644;BME280;43474;46.510;6.686;2023-05-25T13:11:15;96720.31;;;20.71;78.28
57644;BME280;43474;46.510;6.686;2023-05-25T13:13:40;96730.72;;;20.78;82.72
57644;BME280;43474;46.510;6.686;2023-05-25T13:16:18;96734.50;;;20.77;79.89
57644;BME280;43474;46.510;6.686;2023-05-25T13:18:53;96725.22;;;20.69;82.66
57644;BME280;43474;46.510;6.686;2023-05-25T13:21:18;96719.78;;;20.55;79.62
57644;BME280;43474;46.510;6.686;2023-05-25T13:23:46;96719.75;;;20.36;84.48
57644;BME280;43474;46.510;6.686;2023-05-25T13:26:19;96742.19;;;20.70;81.62
57644;BME280;43474;46.510;6.686;2023-05-25T13:28:45;96735.81;;;20.42;77.13